sensor_id;sensor_type;location;lat;lon;timestamp;pressure;altitude;pressure_sealevel;temperature;humidity
67345;BME280;54230;52.402;6.276;2023-03-21T00:00:00;101630.0;;;11.6;95.0
67345;BME280;54230;52.402;6.276;2023-03-21T00:05:00;101620.0;;;11.7;95.0
67345;BME280;54230;52.402;6.276;2023-03-21T00:10:00;101620.0;;;11.8;94.3
67345;BME280;54230;52.402;6.276;2023-03-21T00:15:00;101620.0;;;11.8;94.4
67345;BME280;54230;52.402;6.276;2023-03-21T00:20:01;101610.0;;;11.7;94.7
67345;BME280;54230;52.402;6.276;2023-03-21T00:25:00;101610.0;;;11.7;95.0
67345;BME280;54230;52.402;6.276;2023-03-21T00:30:00;101610.0;;;11.7;95.0
67345;BME280;54230;52.402;6.276;2023-03-21T00:35:00;101600.0;;;11.7;94.5
67345;BME280;54230;52.402;6.276;2023-03-21T00:40:00;101600.0;;;11.7;94.5
67345;BME280;54230;52.402;6.276;2023-03-21T00:45:00;101600.0;;;11.7;94.5
67345;BME280;54230;52.402;6.276;2023-03-21T00:50:00;101590.0;;;11.7;94.4
67345;BME280;54230;52.402;6.276;2023-03-21T00:55:00;101590.0;;;11.7;94.4
67345;BME280;54230;52.402;6.276;2023-03-21T01:00:00;101580.0;;;11.8;94.2
67345;BME280;54230;52.402;6.276;2023-03-21T01:05:00;101570.0;;;11.8;93.9
67345;BME280;54230;52.402;6.276;2023-03-21T01:10:00;101570.0;;;11.8;94.0
67345;BME280;54230;52.402;6.276;2023-03-21T01:15:00;101560.0;;;11.8;94.0
67345;BME280;54230;52.402;6.276;2023-03-21T01:20:00;101560.0;;;11.8;94.1
67345;BME280;54230;52.402;6.276;2023-03-21T01:25:00;101560.0;;;11.8;94.4
67345;BME280;54230;52.402;6.276;2023-03-21T01:30:00;101560.0;;;11.7;94.5
67345;BME280;54230;52.402;6.276;2023-03-21T01:35:00;101550.0;;;11.6;95.2
67345;BME280;54230;52.402;6.276;2023-03-21T01:40:00;101550.0;;;11.6;95.4
67345;BME280;54230;52.402;6.276;2023-03-21T01:45:02;101550.0;;;11.7;95.5
67345;BME280;54230;52.402;6.276;2023-03-21T01:50:02;101540.0;;;11.7;95.4
67345;BME280;54230;52.402;6.276;2023-03-21T01:55:01;101540.0;;;11.6;95.5
67345;BME280;54230;52.402;6.276;2023-03-21T02:00:02;101530.0;;;11.6;95.6
67345;BME280;54230;52.402;6.276;2023-03-21T02:05:00;101530.0;;;11.5;95.9
67345;BME280;54230;52.402;6.276;2023-03-21T02:10:02;101520.0;;;11.5;95.5
67345;BME280;54230;52.402;6.276;2023-03-21T02:15:00;101510.0;;;11.6;95.3
67345;BME280;54230;52.402;6.276;2023-03-21T02:25:12;101510.0;;;11.5;95.6
67345;BME280;54230;52.402;6.276;2023-03-21T02:30:16;101500.0;;;11.6;95.5
67345;BME280;54230;52.402;6.276;2023-03-21T02:35:14;101490.0;;;11.6;95.5
67345;BME280;54230;52.402;6.276;2023-03-21T02:40:07;101490.0;;;11.6;95.4
67345;BME280;54230;52.402;6.276;2023-03-21T02:45:03;101480.0;;;11.6;95.1
67345;BME280;54230;52.402;6.276;2023-03-21T02:50:06;101480.0;;;11.6;95.1
67345;BME280;54230;52.402;6.276;2023-03-21T02:55:00;101470.0;;;11.6;95.0
67345;BME280;54230;52.402;6.276;2023-03-21T03:00:01;101470.0;;;11.6;94.8
67345;BME280;54230;52.402;6.276;2023-03-21T03:05:00;101470.0;;;11.6;94.6
67345;BME280;54230;52.402;6.276;2023-03-21T03:10:10;101470.0;;;11.7;94.3
67345;BME280;54230;52.402;6.276;2023-03-21T03:15:04;101460.0;;;11.7;94.3
67345;BME280;54230;52.402;6.276;2023-03-21T03:20:14;101460.0;;;11.7;94.0
67345;BME280;54230;52.402;6.276;2023-03-21T03:25:02;101460.0;;;11.7;94.0
67345;BME280;54230;52.402;6.276;2023-03-21T03:30:01;101460.0;;;11.7;93.7
67345;BME280;54230;52.402;6.276;2023-03-21T03:35:01;101460.0;;;11.6;93.5
67345;BME280;54230;52.402;6.276;2023-03-21T03:40:03;101460.0;;;11.6;94.0
67345;BME280;54230;52.402;6.276;2023-03-21T03:45:00;101450.0;;;11.6;93.8
67345;BME280;54230;52.402;6.276;2023-03-21T03:50:02;101450.0;;;11.6;93.8
67345;BME280;54230;52.402;6.276;2023-03-21T03:55:00;101450.0;;;11.6;93.7
67345;BME280;54230;52.402;6.276;2023-03-21T04:00:00;101440.0;;;11.7;93.2
67345;BME280;54230;52.402;6.276;2023-03-21T04:05:00;101440.0;;;11.7;93.3
67345;BME280;54230;52.402;6.276;2023-03-21T04:10:00;101440.0;;;11.6;93.3
67345;BME280;54230;52.402;6.276;2023-03-21T04:15:00;101440.0;;;11.7;93.2
67345;BME280;54230;52.402;6.276;2023-03-21T04:20:00;101440.0;;;11.6;93.1
67345;BME280;54230;52.402;6.276;2023-03-21T04:25:00;101440.0;;;11.6;92.6
67345;BME280;54230;52.402;6.276;2023-03-21T04:30:00;101440.0;;;11.6;92.7
67345;BME280;54230;52.402;6.276;2023-03-21T04:35:00;101430.0;;;11.6;92.5
67345;BME280;54230;52.402;6.276;2023-03-21T04:40:00;101430.0;;;11.6;92.4
67345;BME280;54230;52.402;6.276;2023-03-21T04:45:00;101430.0;;;11.5;92.5
67345;BME280;54230;52.402;6.276;2023-03-21T04:50:00;101420.0;;;11.5;92.9
67345;BME280;54230;52.402;6.276;2023-03-21T04:55:00;101420.0;;;11.6;93.0
67345;BME280;54230;52.402;6.276;2023-03-21T05:00:00;101420.0;;;11.5;92.9
67345;BME280;54230;52.402;6.276;2023-03-21T05:05:00;101420.0;;;11.5;92.9
67345;BME280;54230;52.402;6.276;2023-03-21T05:10:00;101420.0;;;11.5;92.9
67345;BME280;54230;52.402;6.276;2023-03-21T05:15:00;101410.0;;;11.6;93.0
67345;BME280;54230;52.402;6.276;2023-03-21T05:20:00;101420.0;;;11.5;92.9
67345;BME280;54230;52.402;6.276;2023-03-21T05:25:00;101420.0;;;11.5;93.0
67345;BME280;54230;52.402;6.276;2023-03-21T05:30:02;101420.0;;;11.4;93.1
67345;BME280;54230;52.402;6.276;2023-03-21T05:35:00;101420.0;;;11.3;93.7
67345;BME280;54230;52.402;6.276;2023-03-21T05:40:00;101420.0;;;11.3;94.3
67345;BME280;54230;52.402;6.276;2023-03-21T05:45:00;101410.0;;;11.4;94.0
67345;BME280;54230;52.402;6.276;2023-03-21T05:50:00;101410.0;;;11.3;94.3
67345;BME280;54230;52.402;6.276;2023-03-21T05:55:00;101420.0;;;11.3;94.5
67345;BME280;54230;52.402;6.276;2023-03-21T06:00:00;101410.0;;;11.2;94.9
67345;BME280;54230;52.402;6.276;2023-03-21T06:05:00;101420.0;;;11.3;95.1
67345;BME280;54230;52.402;6.276;2023-03-21T06:10:00;101410.0;;;11.3;95.1
67345;BME280;54230;52.402;6.276;2023-03-21T06:15:00;101420.0;;;11.4;95.5
67345;BME280;54230;52.402;6.276;2023-03-21T06:20:00;101420.0;;;11.3;95.4
67345;BME280;54230;52.402;6.276;2023-03-21T06:25:00;101420.0;;;11.3;95.4
67345;BME280;54230;52.402;6.276;2023-03-21T06:30:00;101420.0;;;11.3;95.5
67345;BME280;54230;52.402;6.276;2023-03-21T06:35:00;101420.0;;;11.5;96.3
67345;BME280;54230;52.402;6.276;2023-03-21T06:40:00;101420.0;;;11.4;95.5
67345;BME280;54230;52.402;6.276;2023-03-21T06:45:00;101420.0;;;11.3;95.2
67345;BME280;54230;52.402;6.276;2023-03-21T06:50:00;101420.0;;;11.2;95.6
67345;BME280;54230;52.402;6.276;2023-03-21T06:55:00;101420.0;;;11.2;95.5
67345;BME280;54230;52.402;6.276;2023-03-21T07:00:00;101430.0;;;11.3;95.2
67345;BME280;54230;52.402;6.276;2023-03-21T07:05:00;101420.0;;;11.3;95.1
67345;BME280;54230;52.402;6.276;2023-03-21T07:10:00;101420.0;;;11.5;95.2
67345;BME280;54230;52.402;6.276;2023-03-21T07:15:00;101420.0;;;11.6;94.2
67345;BME280;54230;52.402;6.276;2023-03-21T07:20:00;101430.0;;;11.7;93.4
67345;BME280;54230;52.402;6.276;2023-03-21T07:25:00;101430.0;;;11.8;93.5
67345;BME280;54230;52.402;6.276;2023-03-21T07:30:00;101430.0;;;11.8;93.2
67345;BME280;54230;52.402;6.276;2023-03-21T07:35:00;101420.0;;;11.9;93.1
67345;BME280;54230;52.402;6.276;2023-03-21T07:40:00;101420.0;;;12.0;92.0
67345;BME280;54230;52.402;6.276;2023-03-21T07:45:00;101420.0;;;12.1;91.6
67345;BME280;54230;52.402;6.276;2023-03-21T07:50:00;101420.0;;;12.1;91.4
67345;BME280;54230;52.402;6.276;2023-03-21T07:55:00;101420.0;;;12.1;91.0
67345;BME280;54230;52.402;6.276;2023-03-21T08:00:00;101420.0;;;12.2;91.0
67345;BME280;54230;52.402;6.276;2023-03-21T08:05:01;101420.0;;;12.2;90.5
67345;BME280;54230;52.402;6.276;2023-03-21T08:10:00;101420.0;;;12.3;90.1
67345;BME280;54230;52.402;6.276;2023-03-21T08:15:00;101410.0;;;12.3;89.9
67345;BME280;54230;52.402;6.276;2023-03-21T08:20:00;101400.0;;;12.5;89.6
67345;BME280;54230;52.402;6.276;2023-03-21T08:25:00;101410.0;;;12.7;88.5
67345;BME280;54230;52.402;6.276;2023-03-21T08:30:00;101410.0;;;12.8;88.7
67345;BME280;54230;52.402;6.276;2023-03-21T08:35:01;101410.0;;;12.7;88.1
67345;BME280;54230;52.402;6.276;2023-03-21T08:40:00;101400.0;;;12.6;88.2
67345;BME280;54230;52.402;6.276;2023-03-21T08:45:00;101410.0;;;12.4;88.6
67345;BME280;54230;52.402;6.276;2023-03-21T08:50:00;101410.0;;;12.4;88.6
67345;BME280;54230;52.402;6.276;2023-03-21T08:55:00;101410.0;;;12.4;88.6
67345;BME280;54230;52.402;6.276;2023-03-21T09:00:00;101400.0;;;12.4;88.6
67345;BME280;54230;52.402;6.276;2023-03-21T09:05:00;101390.0;;;12.4;89.3
67345;BME280;54230;52.402;6.276;2023-03-21T09:10:00;101390.0;;;12.6;89.2
67345;BME280;54230;52.402;6.276;2023-03-21T09:15:00;101390.0;;;12.7;89.4
67345;BME280;54230;52.402;6.276;2023-03-21T09:20:00;101390.0;;;12.8;89.1
67345;BME280;54230;52.402;6.276;2023-03-21T09:25:00;101380.0;;;12.9;88.7
67345;BME280;54230;52.402;6.276;2023-03-21T09:30:00;101380.0;;;13.0;88.6
67345;BME280;54230;52.402;6.276;2023-03-21T09:35:00;101380.0;;;13.2;88.1
67345;BME280;54230;52.402;6.276;2023-03-21T09:40:00;101380.0;;;13.2;87.5
67345;BME280;54230;52.402;6.276;2023-03-21T09:45:07;101370.0;;;13.3;87.7
67345;BME280;54230;52.402;6.276;2023-03-21T09:50:03;101360.0;;;13.3;86.9
67345;BME280;54230;52.402;6.276;2023-03-21T09:55:01;101360.0;;;13.4;87.3
67345;BME280;54230;52.402;6.276;2023-03-21T10:00:03;101350.0;;;13.5;86.3
67345;BME280;54230;52.402;6.276;2023-03-21T10:05:01;101360.0;;;13.6;86.3
67345;BME280;54230;52.402;6.276;2023-03-21T10:10:00;101350.0;;;13.5;85.7
67345;BME280;54230;52.402;6.276;2023-03-21T10:15:00;101350.0;;;13.4;85.4
67345;BME280;54230;52.402;6.276;2023-03-21T10:20:09;101340.0;;;13.7;85.2
67345;BME280;54230;52.402;6.276;2023-03-21T10:25:00;101320.0;;;13.8;84.4
67345;BME280;54230;52.402;6.276;2023-03-21T10:30:00;101310.0;;;14.0;83.7
67345;BME280;54230;52.402;6.276;2023-03-21T10:35:01;101310.0;;;14.2;83.0
67345;BME280;54230;52.402;6.276;2023-03-21T10:40:00;101300.0;;;14.1;81.3
67345;BME280;54230;52.402;6.276;2023-03-21T10:45:00;101300.0;;;14.2;81.8
67345;BME280;54230;52.402;6.276;2023-03-21T10:50:01;101290.0;;;14.3;81.3
67345;BME280;54230;52.402;6.276;2023-03-21T10:55:16;101280.0;;;14.4;80.6
67345;BME280;54230;52.402;6.276;2023-03-21T11:00:01;101280.0;;;14.6;80.3
67345;BME280;54230;52.402;6.276;2023-03-21T11:05:04;101290.0;;;14.6;79.8
67345;BME280;54230;52.402;6.276;2023-03-21T11:10:11;101290.0;;;14.8;79.1
67345;BME280;54230;52.402;6.276;2023-03-21T11:15:20;101280.0;;;15.1;78.3
67345;BME280;54230;52.402;6.276;2023-03-21T11:20:03;101280.0;;;14.8;78.4
67345;BME280;54230;52.402;6.276;2023-03-21T11:25:03;101270.0;;;14.6;77.6
67345;BME280;54230;52.402;6.276;2023-03-21T11:30:02;101250.0;;;14.7;78.1
67345;BME280;54230;52.402;6.276;2023-03-21T11:35:03;101250.0;;;14.9;76.9
67345;BME280;54230;52.402;6.276;2023-03-21T11:40:12;101260.0;;;15.2;76.7
67345;BME280;54230;52.402;6.276;2023-03-21T11:45:03;101260.0;;;15.3;75.8
67345;BME280;54230;52.402;6.276;2023-03-21T11:50:00;101260.0;;;15.4;74.9
67345;BME280;54230;52.402;6.276;2023-03-21T12:00:06;101250.0;;;15.5;74.5
67345;BME280;54230;52.402;6.276;2023-03-21T12:05:02;101250.0;;;15.4;74.6
67345;BME280;54230;52.402;6.276;2023-03-21T12:10:25;101240.0;;;15.3;74.2
67345;BME280;54230;52.402;6.276;2023-03-21T12:15:02;101230.0;;;15.1;73.8
67345;BME280;54230;52.402;6.276;2023-03-21T12:20:11;101220.0;;;15.0;74.6
67345;BME280;54230;52.402;6.276;2023-03-21T12:25:04;101220.0;;;14.9;74.4
67345;BME280;54230;52.402;6.276;2023-03-21T12:30:10;101220.0;;;15.1;73.7
67345;BME280;54230;52.402;6.276;2023-03-21T12:35:16;101210.0;;;15.3;73.5
67345;BME280;54230;52.402;6.276;2023-03-21T12:40:08;101200.0;;;15.4;73.0
67345;BME280;54230;52.402;6.276;2023-03-21T12:45:04;101200.0;;;15.4;73.0
67345;BME280;54230;52.402;6.276;2023-03-21T12:50:03;101190.0;;;15.5;72.2
67345;BME280;54230;52.402;6.276;2023-03-21T12:55:02;101200.0;;;15.2;72.2
67345;BME280;54230;52.402;6.276;2023-03-21T13:00:02;101200.0;;;15.2;72.4
67345;BME280;54230;52.402;6.276;2023-03-21T13:05:04;101190.0;;;15.0;72.5
67345;BME280;54230;52.402;6.276;2023-03-21T13:10:00;101190.0;;;15.1;72.5
67345;BME280;54230;52.402;6.276;2023-03-21T13:15:06;101180.0;;;15.0;72.9
67345;BME280;54230;52.402;6.276;2023-03-21T13:20:05;101180.0;;;15.2;72.5
67345;BME280;54230;52.402;6.276;2023-03-21T13:25:03;101170.0;;;15.6;72.1
67345;BME280;54230;52.402;6.276;2023-03-21T13:30:01;101170.0;;;15.7;71.6
67345;BME280;54230;52.402;6.276;2023-03-21T13:35:02;101150.0;;;15.7;70.4
67345;BME280;54230;52.402;6.276;2023-03-21T13:40:04;101160.0;;;15.6;70.2
67345;BME280;54230;52.402;6.276;2023-03-21T13:45:01;101150.0;;;15.4;70.7
67345;BME280;54230;52.402;6.276;2023-03-21T13:50:12;101140.0;;;15.5;70.0
67345;BME280;54230;52.402;6.276;2023-03-21T13:55:01;101130.0;;;15.8;68.7
67345;BME280;54230;52.402;6.276;2023-03-21T14:00:14;101130.0;;;16.0;67.6
67345;BME280;54230;52.402;6.276;2023-03-21T14:05:02;101120.0;;;16.1;67.5
67345;BME280;54230;52.402;6.276;2023-03-21T14:10:01;101120.0;;;16.3;66.3
67345;BME280;54230;52.402;6.276;2023-03-21T14:15:04;101110.0;;;16.4;65.0
67345;BME280;54230;52.402;6.276;2023-03-21T14:20:04;101120.0;;;16.2;64.8
67345;BME280;54230;52.402;6.276;2023-03-21T14:25:01;101100.0;;;16.7;64.3
67345;BME280;54230;52.402;6.276;2023-03-21T14:30:01;101090.0;;;16.6;62.9
67345;BME280;54230;52.402;6.276;2023-03-21T14:35:00;101080.0;;;16.9;63.0
67345;BME280;54230;52.402;6.276;2023-03-21T14:40:02;101070.0;;;17.2;61.9
67345;BME280;54230;52.402;6.276;2023-03-21T14:45:09;101060.0;;;17.5;60.5
67345;BME280;54230;52.402;6.276;2023-03-21T14:50:00;101070.0;;;17.6;59.5
67345;BME280;54230;52.402;6.276;2023-03-21T14:55:01;101060.0;;;17.8;57.9
67345;BME280;54230;52.402;6.276;2023-03-21T15:00:03;101050.0;;;17.6;56.5
67345;BME280;54230;52.402;6.276;2023-03-21T15:05:07;101050.0;;;17.5;55.3
67345;BME280;54230;52.402;6.276;2023-03-21T15:10:03;101050.0;;;17.3;55.0
67345;BME280;54230;52.402;6.276;2023-03-21T15:15:00;101060.0;;;17.1;55.5
67345;BME280;54230;52.402;6.276;2023-03-21T15:20:00;101050.0;;;16.7;55.7
67345;BME280;54230;52.402;6.276;2023-03-21T15:25:02;101070.0;;;16.5;56.0
67345;BME280;54230;52.402;6.276;2023-03-21T15:30:00;101060.0;;;16.5;56.4
67345;BME280;54230;52.402;6.276;2023-03-21T15:35:05;101050.0;;;16.6;56.5
67345;BME280;54230;52.402;6.276;2023-03-21T15:40:06;101050.0;;;16.6;56.2
67345;BME280;54230;52.402;6.276;2023-03-21T15:45:01;101050.0;;;16.7;56.8
67345;BME280;54230;52.402;6.276;2023-03-21T15:50:05;101040.0;;;16.6;57.4
67345;BME280;54230;52.402;6.276;2023-03-21T15:55:00;101050.0;;;16.5;57.6
67345;BME280;54230;52.402;6.276;2023-03-21T16:00:03;101050.0;;;16.4;58.1
67345;BME280;54230;52.402;6.276;2023-03-21T16:05:02;101060.0;;;16.4;57.9
67345;BME280;54230;52.402;6.276;2023-03-21T16:10:01;101060.0;;;16.2;58.9
67345;BME280;54230;52.402;6.276;2023-03-21T16:15:00;101070.0;;;16.0;60.4
67345;BME280;54230;52.402;6.276;2023-03-21T16:20:00;101070.0;;;15.9;60.8
67345;BME280;54230;52.402;6.276;2023-03-21T16:25:00;101070.0;;;15.7;61.1
67345;BME280;54230;52.402;6.276;2023-03-21T16:30:00;101080.0;;;15.6;60.9
67345;BME280;54230;52.402;6.276;2023-03-21T16:35:00;101080.0;;;15.6;60.9
67345;BME280;54230;52.402;6.276;2023-03-21T16:40:01;101070.0;;;15.6;61.0
67345;BME280;54230;52.402;6.276;2023-03-21T16:45:00;101070.0;;;15.7;60.5
67345;BME280;54230;52.402;6.276;2023-03-21T16:50:00;101070.0;;;15.7;60.2
67345;BME280;54230;52.402;6.276;2023-03-21T16:55:00;101080.0;;;15.6;60.4
67345;BME280;54230;52.402;6.276;2023-03-21T17:00:00;101070.0;;;15.5;60.9
67345;BME280;54230;52.402;6.276;2023-03-21T17:05:00;101070.0;;;15.5;60.9
67345;BME280;54230;52.402;6.276;2023-03-21T17:10:00;101070.0;;;15.4;61.2
67345;BME280;54230;52.402;6.276;2023-03-21T17:15:00;101070.0;;;15.4;61.7
67345;BME280;54230;52.402;6.276;2023-03-21T17:20:00;101070.0;;;15.3;61.3
67345;BME280;54230;52.402;6.276;2023-03-21T17:25:00;101080.0;;;15.2;61.8
67345;BME280;54230;52.402;6.276;2023-03-21T17:30:00;101080.0;;;15.1;62.3
67345;BME280;54230;52.402;6.276;2023-03-21T17:35:00;101080.0;;;14.9;63.1
67345;BME280;54230;52.402;6.276;2023-03-21T17:40:00;101080.0;;;14.8;64.1
67345;BME280;54230;52.402;6.276;2023-03-21T17:45:00;101090.0;;;14.8;65.1
67345;BME280;54230;52.402;6.276;2023-03-21T17:50:00;101100.0;;;14.6;67.0
67345;BME280;54230;52.402;6.276;2023-03-21T17:55:00;101090.0;;;14.5;68.0
67345;BME280;54230;52.402;6.276;2023-03-21T18:00:00;101090.0;;;14.4;68.8
67345;BME280;54230;52.402;6.276;2023-03-21T18:05:00;101100.0;;;14.2;69.9
67345;BME280;54230;52.402;6.276;2023-03-21T18:10:00;101100.0;;;14.0;71.1
67345;BME280;54230;52.402;6.276;2023-03-21T18:15:00;101100.0;;;13.9;71.9
67345;BME280;54230;52.402;6.276;2023-03-21T18:20:00;101090.0;;;13.8;72.1
67345;BME280;54230;52.402;6.276;2023-03-21T18:25:00;101080.0;;;13.7;72.9
67345;BME280;54230;52.402;6.276;2023-03-21T18:30:00;101080.0;;;13.5;73.7
67345;BME280;54230;52.402;6.276;2023-03-21T18:35:00;101060.0;;;13.4;74.2
67345;BME280;54230;52.402;6.276;2023-03-21T18:40:00;101060.0;;;13.3;74.8
67345;BME280;54230;52.402;6.276;2023-03-21T18:45:00;101060.0;;;13.3;75.2
67345;BME280;54230;52.402;6.276;2023-03-21T18:50:00;101060.0;;;13.2;75.0
67345;BME280;54230;52.402;6.276;2023-03-21T18:55:00;101060.0;;;13.1;75.5
67345;BME280;54230;52.402;6.276;2023-03-21T19:00:00;101070.0;;;13.0;75.9
67345;BME280;54230;52.402;6.276;2023-03-21T19:05:00;101060.0;;;12.9;76.4
67345;BME280;54230;52.402;6.276;2023-03-21T19:10:00;101070.0;;;12.8;76.7
67345;BME280;54230;52.402;6.276;2023-03-21T19:15:00;101060.0;;;12.7;77.1
67345;BME280;54230;52.402;6.276;2023-03-21T19:20:00;101060.0;;;12.5;77.3
67345;BME280;54230;52.402;6.276;2023-03-21T19:25:00;101060.0;;;12.5;77.7
67345;BME280;54230;52.402;6.276;2023-03-21T19:30:00;101070.0;;;12.4;77.8
67345;BME280;54230;52.402;6.276;2023-03-21T19:35:00;101060.0;;;12.3;78.0
67345;BME280;54230;52.402;6.276;2023-03-21T19:40:01;101060.0;;;12.4;78.3
67345;BME280;54230;52.402;6.276;2023-03-21T19:45:00;101060.0;;;12.4;77.8
67345;BME280;54230;52.402;6.276;2023-03-21T19:50:00;101050.0;;;12.4;78.0
67345;BME280;54230;52.402;6.276;2023-03-21T19:55:00;101060.0;;;12.4;78.1
67345;BME280;54230;52.402;6.276;2023-03-21T20:00:00;101060.0;;;12.4;78.1
67345;BME280;54230;52.402;6.276;2023-03-21T20:05:00;101050.0;;;12.4;77.9
67345;BME280;54230;52.402;6.276;2023-03-21T20:10:00;101060.0;;;12.3;78.2
67345;BME280;54230;52.402;6.276;2023-03-21T20:15:00;101060.0;;;12.2;78.6
67345;BME280;54230;52.402;6.276;2023-03-21T20:20:00;101050.0;;;12.2;78.7
67345;BME280;54230;52.402;6.276;2023-03-21T20:25:00;101060.0;;;12.1;79.0
67345;BME280;54230;52.402;6.276;2023-03-21T20:30:00;101060.0;;;12.1;79.4
67345;BME280;54230;52.402;6.276;2023-03-21T20:35:00;101050.0;;;12.0;79.9
67345;BME280;54230;52.402;6.276;2023-03-21T20:40:00;101050.0;;;12.0;80.5
67345;BME280;54230;52.402;6.276;2023-03-21T20:45:00;101050.0;;;11.9;80.7
67345;BME280;54230;52.402;6.276;2023-03-21T20:50:00;101050.0;;;11.9;80.7
67345;BME280;54230;52.402;6.276;2023-03-21T20:55:00;101050.0;;;11.9;81.2
67345;BME280;54230;52.402;6.276;2023-03-21T21:00:00;101030.0;;;12.0;82.6
67345;BME280;54230;52.402;6.276;2023-03-21T21:05:00;101030.0;;;12.2;83.1
67345;BME280;54230;52.402;6.276;2023-03-21T21:10:00;101030.0;;;12.3;83.5
67345;BME280;54230;52.402;6.276;2023-03-21T21:15:00;101020.0;;;12.3;83.0
67345;BME280;54230;52.402;6.276;2023-03-21T21:20:00;101020.0;;;12.2;83.4
67345;BME280;54230;52.402;6.276;2023-03-21T21:25:00;101020.0;;;12.4;83.4
67345;BME280;54230;52.402;6.276;2023-03-21T21:30:00;101010.0;;;12.4;82.8
67345;BME280;54230;52.402;6.276;2023-03-21T21:35:00;101010.0;;;12.2;82.6
67345;BME280;54230;52.402;6.276;2023-03-21T21:40:00;101000.0;;;12.1;83.3
67345;BME280;54230;52.402;6.276;2023-03-21T21:45:00;101000.0;;;12.1;83.0
67345;BME280;54230;52.402;6.276;2023-03-21T21:50:00;100990.0;;;12.2;83.2
67345;BME280;54230;52.402;6.276;2023-03-21T21:55:00;100990.0;;;12.2;82.8
67345;BME280;54230;52.402;6.276;2023-03-21T22:00:00;100990.0;;;12.1;83.1
67345;BME280;54230;52.402;6.276;2023-03-21T22:05:00;100980.0;;;12.3;83.0
67345;BME280;54230;52.402;6.276;2023-03-21T22:10:00;100970.0;;;12.2;82.7
67345;BME280;54230;52.402;6.276;2023-03-21T22:15:00;100970.0;;;12.1;82.9
67345;BME280;54230;52.402;6.276;2023-03-21T22:20:00;100960.0;;;12.3;83.1
67345;BME280;54230;52.402;6.276;2023-03-21T22:25:00;100950.0;;;12.2;82.7
67345;BME280;54230;52.402;6.276;2023-03-21T22:30:00;100950.0;;;12.2;83.1
67345;BME280;54230;52.402;6.276;2023-03-21T22:35:00;100950.0;;;12.3;82.6
67345;BME280;54230;52.402;6.276;2023-03-21T22:40:00;100950.0;;;12.3;82.1
67345;BME280;54230;52.402;6.276;2023-03-21T22:45:00;100950.0;;;12.0;82.5
67345;BME280;54230;52.402;6.276;2023-03-21T22:50:00;100950.0;;;11.8;83.5
67345;BME280;54230;52.402;6.276;2023-03-21T22:55:00;100950.0;;;11.8;83.9
67345;BME280;54230;52.402;6.276;2023-03-21T23:00:00;100950.0;;;11.9;84.0
67345;BME280;54230;52.402;6.276;2023-03-21T23:05:00;100940.0;;;12.0;83.8
67345;BME280;54230;52.402;6.276;2023-03-21T23:10:00;100940.0;;;12.0;83.3
67345;BME280;54230;52.402;6.276;2023-03-21T23:15:00;100940.0;;;12.0;82.9
67345;BME280;54230;52.402;6.276;2023-03-21T23:20:01;100930.0;;;12.0;82.7
67345;BME280;54230;52.402;6.276;2023-03-21T23:25:00;100930.0;;;12.0;82.5
67345;BME280;54230;52.402;6.276;2023-03-21T23:30:00;100930.0;;;12.1;82.2
67345;BME280;54230;52.402;6.276;2023-03-21T23:35:00;100930.0;;;12.0;82.0
67345;BME280;54230;52.402;6.276;2023-03-21T23:40:00;100920.0;;;11.9;82.0
67345;BME280;54230;52.402;6.276;2023-03-21T23:45:00;100920.0;;;11.8;82.1
67345;BME280;54230;52.402;6.276;2023-03-21T23:50:00;100920.0;;;11.8;81.2
67345;BME280;54230;52.402;6.276;2023-03-21T23:55:00;100920.0;;;11.7;81.3
